Airfield :
LOGIN :

Register | Disclaimer

   EN    FR    IT 

 










Legend :    VFR   Marginal VFR   IFR   Intensive IFR   Very Intensive IFR
Visi :
Ceiling :
>= 8 km
>= 3000ft
5 to 8 km
1000 to 3000 ft
1500m to 5 km
500 to 1000 ft
800 to 1500m
200 to 500 ft
< 800m
< 200 ft
Symbols :   Thunderstorms  Fog  Heavy snow  Heavy precipitations  Wind > 20 kt
SIGMETs :     Misc.  Thunderstorms  Icing  Turbulence  Mountain Waves  Volcanic Ashes







- Airport Elevation : 19 ft
- IATA code : LCY
- Download approach charts


EGLC - London City

CURRENT METAR :
  • 210250Z AUTO VRB02KT 6000 BKN006 BKN021 03/02 Q1006

EXPIRED METARs :
  • 210220Z AUTO VRB03KT 6000 BKN006 03/02 Q1006
  • 210150Z AUTO VRB02KT 7000 BKN005 03/02 Q1005
  • 210120Z AUTO VRB03KT 8000 -RA BKN006 03/02 Q1005
  • 210050Z AUTO 10005KT 6000 -RA OVC006 03/02 Q1005 RERA REDZ
  • 210020Z AUTO 06004KT 020V080 4800 -RASN OVC005 03/02 Q1005

TAF TAF EGLC
Valid from the 21 at 03:00 until the 21 at 12:00 UTC


210200Z 2103/2112 06005KT 7000 BKN005
PROB40
TEMPO 2103/2108 3000 BR BKN003
BECMG 2108/2110 9999 SCT030
TEMPO 2110/2112 8000 -SHRA BKN014
ATIS : +44 20 7646 0224
No reported NOTAMs for that airfield.
1 SIGMET reported for the London FIR (EGTT) :
 
Severe mountain waves
EGTT SIGMET 01 VALID 210100/210500 EGRR
EGTT LONDON FIR SEV MTW FCST WI N5500 W00200 - N5356 W00130 - N5345 W00530 - N5500 W00532 - N5500 W00530 - N5500 W00200 FL030/120 MOV N 05KT WKN=



MET'MAP, your aeronautical weather chart ! - Copyright ORBIFLY December 2007 - Disclaimer

ORBIFLY MET'MAP TEAM :

Programming & Development : Alexandra Zaïnal
Concept & Development : Baudouin d'Aumeries
Co-Development & Prog : Marc-Olivier Méhu
Technical & hardware support : Manuel Goepfert

Contact : metmap@orbifly.com




SOURCES & CREDITS :

   NOAA